Overview Statistics Trail Chart Weather Telemetry Raw packets
 

This is the latest recevied weather packets stored in our database for station/object SP4MGL-10. If no packets are shown the sender has not sent any weather packets the latest 10 day(s).

<< 19 20 21 22 23 24 25 >>
Time Temp. Humidity Pressure Rain* Wind** Luminosity Snow
1788014000 21.67° C 69% 1013.9 hPa - - - -
1788013100 21.11° C 71% 1013.8 hPa - - - -
1788012200 22.22° C 69% 1013.7 hPa - - - -
1788011300 23.33° C 66% 1013.6 hPa - - - -
1788010399 21.67° C 72% 1013.6 hPa - - - -
1788009499 21.11° C 77% 1013.5 hPa - - - -
1788008601 21.11° C 76% 1013.4 hPa - - - -
1788007689 22.22° C 74% 1013.3 hPa - - - -
1788007662 22.22° C 73% 1013.3 hPa - - - -
1788006762 22.78° C 73% 1013.2 hPa - - - -
1788005861 23.33° C 71% 1013.3 hPa - - - -
1788004961 21.67° C 78% 1013.4 hPa - - - -
1788004060 20.56° C 83% 1013.4 hPa - - - -
1788004051 20.56° C 84% 1013.5 hPa - - - -
1788003150 20.56° C 84% 1013.4 hPa - - - -
1788002978 20° C 84% 1013.4 hPa - - - -
1788002078 20° C 88% 1013.5 hPa - - - -
1788001178 18.89° C 92% 1013.5 hPa - - - -
1788000277 18.33° C 95% 1013.6 hPa - - - -
1787999377 18.33° C 95% 1013.3 hPa - - - -
1787998477 17.78° C 98% 1013 hPa - - - -
1787997577 16.67° C 100% 1012.9 hPa - - - -
1787996677 16.11° C 100% 1013.1 hPa - - - -
1787995777 16.11° C 96% 1012.9 hPa - - - -
1787994876 16.11° C 95% 1012.7 hPa - - - -

* Rain since midnight (hover to see other rain measurements)
** Current wind speed in m/s (hover to see current wind gust speed)